sensor_id;sensor_type;location;lat;lon;timestamp;pressure;altitude;pressure_sealevel;temperature;humidity
27040;BME280;14589;51.578;7.306;2023-09-08T00:01:47;101274.94;;;17.60;99.76
27040;BME280;14589;51.578;7.306;2023-09-08T00:04:18;101278.03;;;17.57;100.00
27040;BME280;14589;51.578;7.306;2023-09-08T00:06:50;101279.41;;;17.61;100.00
27040;BME280;14589;51.578;7.306;2023-09-08T00:09:20;101281.63;;;17.58;100.00
27040;BME280;14589;51.578;7.306;2023-09-08T00:11:50;101261.56;;;17.57;100.00
27040;BME280;14589;51.578;7.306;2023-09-08T00:14:21;101274.78;;;17.54;100.00
27040;BME280;14589;51.578;7.306;2023-09-08T00:16:52;101267.09;;;17.49;100.00
27040;BME280;14589;51.578;7.306;2023-09-08T00:19:24;101268.31;;;17.47;100.00
27040;BME280;14589;51.578;7.306;2023-09-08T00:21:56;101266.63;;;17.46;100.00
27040;BME280;14589;51.578;7.306;2023-09-08T00:24:26;101270.88;;;17.48;100.00
27040;BME280;14589;51.578;7.306;2023-09-08T00:26:57;101272.97;;;17.46;100.00
27040;BME280;14589;51.578;7.306;2023-09-08T00:29:27;101277.09;;;17.42;100.00
27040;BME280;14589;51.578;7.306;2023-09-08T00:31:57;101271.97;;;17.39;100.00
27040;BME280;14589;51.578;7.306;2023-09-08T00:34:28;101268.72;;;17.35;100.00
27040;BME280;14589;51.578;7.306;2023-09-08T00:36:58;101272.47;;;17.34;100.00
27040;BME280;14589;51.578;7.306;2023-09-08T00:39:30;101271.84;;;17.32;100.00
27040;BME280;14589;51.578;7.306;2023-09-08T00:42:01;101271.84;;;17.32;100.00
27040;BME280;14589;51.578;7.306;2023-09-08T00:44:31;101276.28;;;17.33;100.00
27040;BME280;14589;51.578;7.306;2023-09-08T00:47:02;101265.34;;;17.25;100.00
27040;BME280;14589;51.578;7.306;2023-09-08T00:49:33;101260.72;;;17.26;100.00
27040;BME280;14589;51.578;7.306;2023-09-08T00:52:04;101267.56;;;17.30;100.00
27040;BME280;14589;51.578;7.306;2023-09-08T00:54:34;101273.19;;;17.28;100.00
27040;BME280;14589;51.578;7.306;2023-09-08T00:57:05;101275.28;;;17.26;100.00
27040;BME280;14589;51.578;7.306;2023-09-08T00:59:37;101269.28;;;17.23;100.00
27040;BME280;14589;51.578;7.306;2023-09-08T01:02:08;101265.91;;;17.21;100.00
27040;BME280;14589;51.578;7.306;2023-09-08T01:04:39;101267.63;;;17.14;100.00
27040;BME280;14589;51.578;7.306;2023-09-08T01:07:12;101266.09;;;17.11;100.00
27040;BME280;14589;51.578;7.306;2023-09-08T01:09:45;101274.31;;;17.11;100.00
27040;BME280;14589;51.578;7.306;2023-09-08T01:12:16;101267.66;;;17.06;100.00
27040;BME280;14589;51.578;7.306;2023-09-08T01:14:47;101267.31;;;17.09;100.00
27040;BME280;14589;51.578;7.306;2023-09-08T01:17:17;101264.78;;;16.99;100.00
27040;BME280;14589;51.578;7.306;2023-09-08T01:19:48;101280.38;;;16.98;100.00
27040;BME280;14589;51.578;7.306;2023-09-08T01:22:43;101277.47;;;17.00;100.00
27040;BME280;14589;51.578;7.306;2023-09-08T01:25:24;101273.16;;;16.97;100.00
27040;BME280;14589;51.578;7.306;2023-09-08T01:27:55;101274.72;;;16.92;100.00
27040;BME280;14589;51.578;7.306;2023-09-08T01:30:29;101275.41;;;16.94;100.00
27040;BME280;14589;51.578;7.306;2023-09-08T01:33:03;101271.34;;;16.90;100.00
27040;BME280;14589;51.578;7.306;2023-09-08T01:35:33;101268.94;;;16.87;100.00
27040;BME280;14589;51.578;7.306;2023-09-08T01:38:04;101273.75;;;16.85;100.00
27040;BME280;14589;51.578;7.306;2023-09-08T01:40:35;101265.88;;;16.82;100.00
27040;BME280;14589;51.578;7.306;2023-09-08T01:43:06;101261.09;;;16.76;100.00
27040;BME280;14589;51.578;7.306;2023-09-08T01:45:36;101262.13;;;16.75;100.00
27040;BME280;14589;51.578;7.306;2023-09-08T01:48:07;101264.88;;;16.75;100.00
27040;BME280;14589;51.578;7.306;2023-09-08T01:50:39;101262.66;;;16.70;100.00
27040;BME280;14589;51.578;7.306;2023-09-08T01:53:09;101261.13;;;16.68;100.00
27040;BME280;14589;51.578;7.306;2023-09-08T01:55:40;101257.88;;;16.64;100.00
27040;BME280;14589;51.578;7.306;2023-09-08T01:58:10;101252.94;;;16.60;100.00
27040;BME280;14589;51.578;7.306;2023-09-08T02:00:41;101252.38;;;16.56;100.00
27040;BME280;14589;51.578;7.306;2023-09-08T02:03:11;101253.25;;;16.48;100.00
27040;BME280;14589;51.578;7.306;2023-09-08T02:05:42;101249.66;;;16.48;100.00
27040;BME280;14589;51.578;7.306;2023-09-08T02:08:13;101245.75;;;16.42;100.00
27040;BME280;14589;51.578;7.306;2023-09-08T02:10:45;101258.94;;;16.47;100.00
27040;BME280;14589;51.578;7.306;2023-09-08T02:13:15;101253.09;;;16.50;100.00
27040;BME280;14589;51.578;7.306;2023-09-08T02:15:46;101250.88;;;16.45;100.00
27040;BME280;14589;51.578;7.306;2023-09-08T02:18:16;101247.28;;;16.45;100.00
27040;BME280;14589;51.578;7.306;2023-09-08T02:20:46;101255.81;;;16.50;100.00
27040;BME280;14589;51.578;7.306;2023-09-08T02:23:17;101250.50;;;16.48;100.00
27040;BME280;14589;51.578;7.306;2023-09-08T02:25:48;101256.00;;;16.48;100.00
27040;BME280;14589;51.578;7.306;2023-09-08T02:28:18;101252.59;;;16.46;100.00
27040;BME280;14589;51.578;7.306;2023-09-08T02:30:49;101240.94;;;16.44;100.00
27040;BME280;14589;51.578;7.306;2023-09-08T02:33:19;101250.88;;;16.45;100.00
27040;BME280;14589;51.578;7.306;2023-09-08T02:35:50;101245.06;;;16.40;100.00
27040;BME280;14589;51.578;7.306;2023-09-08T02:38:22;101251.41;;;16.41;100.00
27040;BME280;14589;51.578;7.306;2023-09-08T02:40:53;101249.88;;;16.38;100.00
27040;BME280;14589;51.578;7.306;2023-09-08T02:43:23;101258.44;;;16.35;100.00
27040;BME280;14589;51.578;7.306;2023-09-08T02:45:54;101255.69;;;16.35;100.00
27040;BME280;14589;51.578;7.306;2023-09-08T02:48:25;101258.28;;;16.29;100.00
27040;BME280;14589;51.578;7.306;2023-09-08T02:50:56;101239.81;;;16.23;100.00
27040;BME280;14589;51.578;7.306;2023-09-08T02:53:27;101248.69;;;16.25;100.00
27040;BME280;14589;51.578;7.306;2023-09-08T02:55:59;101256.56;;;16.28;100.00
27040;BME280;14589;51.578;7.306;2023-09-08T02:58:30;101253.13;;;16.26;100.00
27040;BME280;14589;51.578;7.306;2023-09-08T03:01:16;101252.09;;;16.27;100.00
27040;BME280;14589;51.578;7.306;2023-09-08T03:03:50;101252.44;;;16.24;100.00
27040;BME280;14589;51.578;7.306;2023-09-08T03:06:23;101255.38;;;16.22;100.00
27040;BME280;14589;51.578;7.306;2023-09-08T03:08:54;101249.22;;;16.20;100.00
27040;BME280;14589;51.578;7.306;2023-09-08T03:11:24;101260.47;;;16.17;100.00
27040;BME280;14589;51.578;7.306;2023-09-08T03:13:54;101257.94;;;16.15;100.00
27040;BME280;14589;51.578;7.306;2023-09-08T03:16:25;101247.16;;;16.14;100.00
27040;BME280;14589;51.578;7.306;2023-09-08T03:18:55;101258.09;;;16.14;100.00
27040;BME280;14589;51.578;7.306;2023-09-08T03:21:26;101247.00;;;16.07;100.00
27040;BME280;14589;51.578;7.306;2023-09-08T03:23:56;101254.19;;;16.08;100.00
27040;BME280;14589;51.578;7.306;2023-09-08T03:26:26;101253.84;;;16.03;100.00
27040;BME280;14589;51.578;7.306;2023-09-08T03:28:57;101237.09;;;15.98;100.00
27040;BME280;14589;51.578;7.306;2023-09-08T03:31:28;101245.78;;;15.94;100.00
27040;BME280;14589;51.578;7.306;2023-09-08T03:33:58;101244.94;;;15.93;100.00
27040;BME280;14589;51.578;7.306;2023-09-08T03:36:29;101229.72;;;15.91;100.00
27040;BME280;14589;51.578;7.306;2023-09-08T03:39:02;101242.41;;;15.92;100.00
27040;BME280;14589;51.578;7.306;2023-09-08T03:41:32;101241.84;;;15.88;100.00
27040;BME280;14589;51.578;7.306;2023-09-08T03:44:03;101238.78;;;15.83;100.00
27040;BME280;14589;51.578;7.306;2023-09-08T03:46:34;101244.09;;;15.85;100.00
27040;BME280;14589;51.578;7.306;2023-09-08T03:49:06;101245.13;;;15.84;100.00
27040;BME280;14589;51.578;7.306;2023-09-08T03:51:38;101244.78;;;15.78;100.00
27040;BME280;14589;51.578;7.306;2023-09-08T03:54:08;101243.38;;;15.74;100.00
27040;BME280;14589;51.578;7.306;2023-09-08T03:56:39;101238.78;;;15.75;100.00
27040;BME280;14589;51.578;7.306;2023-09-08T03:59:09;101248.19;;;15.72;100.00
27040;BME280;14589;51.578;7.306;2023-09-08T04:01:39;101251.94;;;15.71;100.00
27040;BME280;14589;51.578;7.306;2023-09-08T04:04:10;101251.09;;;15.71;100.00
27040;BME280;14589;51.578;7.306;2023-09-08T04:06:41;101246.13;;;15.66;100.00
27040;BME280;14589;51.578;7.306;2023-09-08T04:09:11;101243.56;;;15.65;100.00
27040;BME280;14589;51.578;7.306;2023-09-08T04:11:42;101237.59;;;15.61;100.00
27040;BME280;14589;51.578;7.306;2023-09-08T04:14:13;101248.16;;;15.64;100.00
27040;BME280;14589;51.578;7.306;2023-09-08T04:16:43;101248.84;;;15.58;100.00
27040;BME280;14589;51.578;7.306;2023-09-08T04:19:14;101242.03;;;15.54;100.00
27040;BME280;14589;51.578;7.306;2023-09-08T04:21:44;101243.72;;;15.55;100.00
27040;BME280;14589;51.578;7.306;2023-09-08T04:24:14;101243.31;;;15.50;100.00
27040;BME280;14589;51.578;7.306;2023-09-08T04:26:45;101247.94;;;15.50;100.00
27040;BME280;14589;51.578;7.306;2023-09-08T04:29:16;101241.09;;;15.46;100.00
27040;BME280;14589;51.578;7.306;2023-09-08T04:31:46;101235.81;;;15.36;100.00
27040;BME280;14589;51.578;7.306;2023-09-08T04:34:17;101244.66;;;15.38;100.00
27040;BME280;14589;51.578;7.306;2023-09-08T04:36:48;101250.13;;;15.38;100.00
27040;BME280;14589;51.578;7.306;2023-09-08T04:39:18;101241.75;;;15.31;100.00
27040;BME280;14589;51.578;7.306;2023-09-08T04:41:49;101250.63;;;15.33;100.00
27040;BME280;14589;51.578;7.306;2023-09-08T04:44:19;101241.94;;;15.30;100.00
27040;BME280;14589;51.578;7.306;2023-09-08T04:46:51;101243.81;;;15.29;100.00
27040;BME280;14589;51.578;7.306;2023-09-08T04:49:22;101253.53;;;15.32;100.00
27040;BME280;14589;51.578;7.306;2023-09-08T04:51:53;101248.41;;;15.29;100.00
27040;BME280;14589;51.578;7.306;2023-09-08T04:54:24;101257.97;;;15.33;100.00
27040;BME280;14589;51.578;7.306;2023-09-08T04:56:59;101250.28;;;15.28;100.00
27040;BME280;14589;51.578;7.306;2023-09-08T04:59:29;101254.53;;;15.31;100.00
27040;BME280;14589;51.578;7.306;2023-09-08T05:02:00;101255.59;;;15.30;100.00
27040;BME280;14589;51.578;7.306;2023-09-08T05:04:30;101245.34;;;15.24;100.00
27040;BME280;14589;51.578;7.306;2023-09-08T05:07:01;101255.22;;;15.25;100.00
27040;BME280;14589;51.578;7.306;2023-09-08T05:09:32;101251.81;;;15.23;100.00
27040;BME280;14589;51.578;7.306;2023-09-08T05:12:04;101245.34;;;15.24;100.00
27040;BME280;14589;51.578;7.306;2023-09-08T05:14:34;101252.66;;;15.23;100.00
27040;BME280;14589;51.578;7.306;2023-09-08T05:17:05;101254.38;;;15.24;100.00
27040;BME280;14589;51.578;7.306;2023-09-08T05:19:35;101249.09;;;15.23;100.00
27040;BME280;14589;51.578;7.306;2023-09-08T05:22:06;101250.78;;;15.24;100.00
27040;BME280;14589;51.578;7.306;2023-09-08T05:24:40;101260.53;;;15.26;100.00
27040;BME280;14589;51.578;7.306;2023-09-08T05:27:11;101248.94;;;15.24;100.00
27040;BME280;14589;51.578;7.306;2023-09-08T05:29:41;101249.44;;;15.28;100.00
27040;BME280;14589;51.578;7.306;2023-09-08T05:32:11;101248.72;;;15.26;100.00
27040;BME280;14589;51.578;7.306;2023-09-08T05:34:44;101255.25;;;15.33;100.00
27040;BME280;14589;51.578;7.306;2023-09-08T05:37:14;101244.16;;;15.34;100.00
27040;BME280;14589;51.578;7.306;2023-09-08T05:39:45;101245.38;;;15.40;100.00
27040;BME280;14589;51.578;7.306;2023-09-08T05:42:15;101248.59;;;15.44;100.00
27040;BME280;14589;51.578;7.306;2023-09-08T05:44:46;101253.59;;;15.48;100.00
27040;BME280;14589;51.578;7.306;2023-09-08T05:47:19;101255.69;;;15.54;100.00
27040;BME280;14589;51.578;7.306;2023-09-08T05:49:50;101255.34;;;15.57;100.00
27040;BME280;14589;51.578;7.306;2023-09-08T05:52:21;101251.59;;;15.58;100.00
27040;BME280;14589;51.578;7.306;2023-09-08T05:54:51;101254.34;;;15.66;100.00
27040;BME280;14589;51.578;7.306;2023-09-08T05:57:22;101257.25;;;15.73;100.00
27040;BME280;14589;51.578;7.306;2023-09-08T05:59:52;101261.19;;;15.78;100.00
27040;BME280;14589;51.578;7.306;2023-09-08T06:02:23;101262.38;;;15.84;100.00
27040;BME280;14589;51.578;7.306;2023-09-08T06:04:53;101252.63;;;15.90;100.00
27040;BME280;14589;51.578;7.306;2023-09-08T06:07:24;101247.50;;;15.95;100.00
27040;BME280;14589;51.578;7.306;2023-09-08T06:09:54;101250.56;;;16.00;100.00
27040;BME280;14589;51.578;7.306;2023-09-08T06:12:25;101249.56;;;16.09;100.00
27040;BME280;14589;51.578;7.306;2023-09-08T06:14:55;101250.22;;;16.19;100.00
27040;BME280;14589;51.578;7.306;2023-09-08T06:17:26;101246.97;;;16.32;100.00
27040;BME280;14589;51.578;7.306;2023-09-08T06:19:58;101257.06;;;16.39;100.00
27040;BME280;14589;51.578;7.306;2023-09-08T06:22:28;101252.91;;;16.51;100.00
27040;BME280;14589;51.578;7.306;2023-09-08T06:24:59;101258.41;;;16.60;100.00
27040;BME280;14589;51.578;7.306;2023-09-08T06:27:30;101258.03;;;16.71;100.00
27040;BME280;14589;51.578;7.306;2023-09-08T06:30:01;101252.88;;;16.76;100.00
27040;BME280;14589;51.578;7.306;2023-09-08T06:32:31;101262.09;;;16.91;100.00
27040;BME280;14589;51.578;7.306;2023-09-08T06:35:02;101255.00;;;17.05;100.00
27040;BME280;14589;51.578;7.306;2023-09-08T06:37:39;101258.88;;;17.18;100.00
27040;BME280;14589;51.578;7.306;2023-09-08T06:40:11;101258.78;;;17.34;100.00
27040;BME280;14589;51.578;7.306;2023-09-08T06:42:41;101251.81;;;17.55;100.00
27040;BME280;14589;51.578;7.306;2023-09-08T06:45:18;101259.44;;;17.75;100.00
27040;BME280;14589;51.578;7.306;2023-09-08T06:47:49;101259.41;;;17.98;100.00
27040;BME280;14589;51.578;7.306;2023-09-08T06:50:23;101272.28;;;18.21;100.00
27040;BME280;14589;51.578;7.306;2023-09-08T06:52:53;101261.59;;;18.40;100.00
27040;BME280;14589;51.578;7.306;2023-09-08T06:55:24;101271.72;;;18.63;100.00
27040;BME280;14589;51.578;7.306;2023-09-08T06:57:54;101272.03;;;18.82;100.00
27040;BME280;14589;51.578;7.306;2023-09-08T07:00:25;101259.66;;;19.08;100.00
27040;BME280;14589;51.578;7.306;2023-09-08T07:02:56;101260.78;;;19.28;100.00
27040;BME280;14589;51.578;7.306;2023-09-08T07:05:27;101258.97;;;19.50;100.00
27040;BME280;14589;51.578;7.306;2023-09-08T07:07:57;101258.97;;;19.71;98.80
27040;BME280;14589;51.578;7.306;2023-09-08T07:10:28;101266.00;;;19.95;97.31
27040;BME280;14589;51.578;7.306;2023-09-08T07:12:58;101255.16;;;20.14;94.19
27040;BME280;14589;51.578;7.306;2023-09-08T07:15:29;101256.22;;;20.35;93.50
27040;BME280;14589;51.578;7.306;2023-09-08T07:18:00;101262.53;;;20.56;92.02
27040;BME280;14589;51.578;7.306;2023-09-08T07:20:30;101260.13;;;20.75;90.27
27040;BME280;14589;51.578;7.306;2023-09-08T07:23:01;101267.25;;;20.97;87.39
27040;BME280;14589;51.578;7.306;2023-09-08T07:25:32;101269.53;;;21.21;86.97
27040;BME280;14589;51.578;7.306;2023-09-08T07:28:05;101270.47;;;21.42;84.64
27040;BME280;14589;51.578;7.306;2023-09-08T07:30:36;101263.94;;;21.62;83.08
27040;BME280;14589;51.578;7.306;2023-09-08T07:33:07;101262.53;;;21.86;82.34
27040;BME280;14589;51.578;7.306;2023-09-08T07:35:38;101273.00;;;22.10;80.19
27040;BME280;14589;51.578;7.306;2023-09-08T07:38:09;101259.00;;;22.25;78.52
27040;BME280;14589;51.578;7.306;2023-09-08T07:40:41;101257.69;;;22.47;77.29
27040;BME280;14589;51.578;7.306;2023-09-08T07:43:12;101268.31;;;22.70;75.81
27040;BME280;14589;51.578;7.306;2023-09-08T07:45:43;101262.34;;;22.86;73.06
27040;BME280;14589;51.578;7.306;2023-09-08T07:48:14;101265.72;;;23.08;72.65
27040;BME280;14589;51.578;7.306;2023-09-08T07:50:44;101262.25;;;23.26;74.27
27040;BME280;14589;51.578;7.306;2023-09-08T07:53:14;101256.00;;;23.37;70.01
27040;BME280;14589;51.578;7.306;2023-09-08T07:55:45;101260.88;;;23.48;68.92
27040;BME280;14589;51.578;7.306;2023-09-08T07:58:15;101262.88;;;23.72;70.75
27040;BME280;14589;51.578;7.306;2023-09-08T08:00:46;101263.44;;;23.88;69.95
27040;BME280;14589;51.578;7.306;2023-09-08T08:03:16;101266.72;;;24.03;68.74
27040;BME280;14589;51.578;7.306;2023-09-08T08:05:46;101257.06;;;24.18;68.17
27040;BME280;14589;51.578;7.306;2023-09-08T08:08:17;101267.97;;;24.38;67.45
27040;BME280;14589;51.578;7.306;2023-09-08T08:10:47;101265.25;;;24.56;67.40
27040;BME280;14589;51.578;7.306;2023-09-08T08:13:17;101260.03;;;24.67;65.64
27040;BME280;14589;51.578;7.306;2023-09-08T08:15:48;101261.25;;;24.95;65.98
27040;BME280;14589;51.578;7.306;2023-09-08T08:18:19;101258.41;;;25.02;62.26
27040;BME280;14589;51.578;7.306;2023-09-08T08:20:50;101261.66;;;25.17;61.53
27040;BME280;14589;51.578;7.306;2023-09-08T08:23:20;101255.94;;;25.30;61.45
27040;BME280;14589;51.578;7.306;2023-09-08T08:25:51;101253.03;;;25.55;60.35
27040;BME280;14589;51.578;7.306;2023-09-08T08:28:21;101253.81;;;25.62;59.03
27040;BME280;14589;51.578;7.306;2023-09-08T08:30:52;101254.72;;;25.74;58.79
27040;BME280;14589;51.578;7.306;2023-09-08T08:33:22;101253.84;;;25.92;56.67
27040;BME280;14589;51.578;7.306;2023-09-08T08:35:56;101258.69;;;26.08;55.86
27040;BME280;14589;51.578;7.306;2023-09-08T08:38:26;101249.34;;;26.33;55.60
27040;BME280;14589;51.578;7.306;2023-09-08T08:41:02;101241.25;;;26.54;54.27
27040;BME280;14589;51.578;7.306;2023-09-08T08:43:34;101242.72;;;26.69;53.43
27040;BME280;14589;51.578;7.306;2023-09-08T08:46:05;101249.22;;;26.86;53.55
27040;BME280;14589;51.578;7.306;2023-09-08T08:48:36;101245.47;;;27.04;53.12
27040;BME280;14589;51.578;7.306;2023-09-08T08:51:08;101243.00;;;27.30;51.76
27040;BME280;14589;51.578;7.306;2023-09-08T08:53:41;101242.63;;;27.38;50.46
27040;BME280;14589;51.578;7.306;2023-09-08T08:56:12;101242.22;;;27.58;49.27
27040;BME280;14589;51.578;7.306;2023-09-08T08:58:42;101230.09;;;27.64;50.27
27040;BME280;14589;51.578;7.306;2023-09-08T09:01:15;101251.16;;;27.89;48.46
27040;BME280;14589;51.578;7.306;2023-09-08T09:03:49;101237.09;;;28.12;48.68
27040;BME280;14589;51.578;7.306;2023-09-08T09:06:20;101237.28;;;28.22;48.88
27040;BME280;14589;51.578;7.306;2023-09-08T09:08:51;101230.44;;;28.30;47.77
27040;BME280;14589;51.578;7.306;2023-09-08T09:11:21;101240.50;;;28.47;48.15
27040;BME280;14589;51.578;7.306;2023-09-08T09:13:51;101241.59;;;28.80;49.09
27040;BME280;14589;51.578;7.306;2023-09-08T09:16:22;101240.16;;;28.77;47.11
27040;BME280;14589;51.578;7.306;2023-09-08T09:18:59;101241.47;;;28.91;45.45
27040;BME280;14589;51.578;7.306;2023-09-08T09:21:47;101243.78;;;29.16;47.29
27040;BME280;14589;51.578;7.306;2023-09-08T09:24:37;101241.03;;;29.21;45.69
27040;BME280;14589;51.578;7.306;2023-09-08T09:27:13;101241.00;;;29.38;45.22
27040;BME280;14589;51.578;7.306;2023-09-08T09:29:48;101235.16;;;29.61;44.07
27040;BME280;14589;51.578;7.306;2023-09-08T09:32:23;101237.31;;;29.81;45.14
27040;BME280;14589;51.578;7.306;2023-09-08T09:34:56;101221.34;;;30.03;43.70
27040;BME280;14589;51.578;7.306;2023-09-08T09:37:30;101236.72;;;30.06;42.43
27040;BME280;14589;51.578;7.306;2023-09-08T09:40:00;101227.72;;;30.31;41.94
27040;BME280;14589;51.578;7.306;2023-09-08T09:42:31;101224.47;;;30.44;43.67
27040;BME280;14589;51.578;7.306;2023-09-08T09:45:02;101215.19;;;30.75;43.39
27040;BME280;14589;51.578;7.306;2023-09-08T09:47:33;101214.34;;;30.75;41.67
27040;BME280;14589;51.578;7.306;2023-09-08T09:50:04;101223.00;;;31.10;41.08
27040;BME280;14589;51.578;7.306;2023-09-08T09:52:38;101215.16;;;31.17;39.28
27040;BME280;14589;51.578;7.306;2023-09-08T09:55:10;101207.94;;;31.31;41.28
27040;BME280;14589;51.578;7.306;2023-09-08T09:57:41;101215.00;;;31.49;40.36
27040;BME280;14589;51.578;7.306;2023-09-08T10:00:12;101202.91;;;31.39;36.78
27040;BME280;14589;51.578;7.306;2023-09-08T10:02:45;101214.72;;;31.51;36.38
27040;BME280;14589;51.578;7.306;2023-09-08T10:05:16;101220.97;;;31.68;36.51
27040;BME280;14589;51.578;7.306;2023-09-08T10:07:47;101216.28;;;32.09;35.34
27040;BME280;14589;51.578;7.306;2023-09-08T10:10:19;101209.56;;;32.25;33.47
27040;BME280;14589;51.578;7.306;2023-09-08T10:12:55;101201.66;;;32.63;33.99
27040;BME280;14589;51.578;7.306;2023-09-08T10:15:28;101207.22;;;32.93;33.87
27040;BME280;14589;51.578;7.306;2023-09-08T10:18:04;101202.22;;;32.70;31.91
27040;BME280;14589;51.578;7.306;2023-09-08T10:20:36;101191.78;;;32.85;31.69
27040;BME280;14589;51.578;7.306;2023-09-08T10:23:28;101208.88;;;33.04;32.43
27040;BME280;14589;51.578;7.306;2023-09-08T10:26:03;101214.72;;;33.23;31.91
27040;BME280;14589;51.578;7.306;2023-09-08T10:28:36;101207.69;;;33.25;32.34
27040;BME280;14589;51.578;7.306;2023-09-08T10:31:07;101212.69;;;33.39;31.85
27040;BME280;14589;51.578;7.306;2023-09-08T10:33:39;101207.94;;;33.88;31.73
27040;BME280;14589;51.578;7.306;2023-09-08T10:36:11;101220.03;;;33.84;31.58
27040;BME280;14589;51.578;7.306;2023-09-08T10:38:43;101216.69;;;34.16;31.73
27040;BME280;14589;51.578;7.306;2023-09-08T10:41:25;101202.28;;;34.56;30.49
27040;BME280;14589;51.578;7.306;2023-09-08T10:44:03;101203.00;;;34.72;29.90
27040;BME280;14589;51.578;7.306;2023-09-08T10:46:37;101200.19;;;34.96;29.18
27040;BME280;14589;51.578;7.306;2023-09-08T10:49:07;101200.66;;;35.26;29.49
27040;BME280;14589;51.578;7.306;2023-09-08T10:51:38;101204.28;;;35.51;29.10
27040;BME280;14589;51.578;7.306;2023-09-08T10:54:09;101192.44;;;35.73;29.04
27040;BME280;14589;51.578;7.306;2023-09-08T10:56:56;101191.63;;;35.67;27.67
27040;BME280;14589;51.578;7.306;2023-09-08T10:59:34;101197.97;;;35.96;28.32
27040;BME280;14589;51.578;7.306;2023-09-08T11:02:05;101200.94;;;36.24;27.90
27040;BME280;14589;51.578;7.306;2023-09-08T11:04:38;101188.38;;;36.16;28.01
27040;BME280;14589;51.578;7.306;2023-09-08T11:07:09;101194.28;;;36.15;27.56
27040;BME280;14589;51.578;7.306;2023-09-08T11:09:40;101185.88;;;36.28;27.14
27040;BME280;14589;51.578;7.306;2023-09-08T11:12:10;101185.78;;;36.33;27.42
27040;BME280;14589;51.578;7.306;2023-09-08T11:14:41;101190.09;;;36.44;27.13
27040;BME280;14589;51.578;7.306;2023-09-08T11:17:11;101181.28;;;36.65;27.67
27040;BME280;14589;51.578;7.306;2023-09-08T11:19:49;101187.47;;;36.80;26.25
27040;BME280;14589;51.578;7.306;2023-09-08T11:22:23;101185.91;;;37.02;27.02
27040;BME280;14589;51.578;7.306;2023-09-08T11:24:56;101183.78;;;37.35;26.07
27040;BME280;14589;51.578;7.306;2023-09-08T11:27:27;101181.22;;;37.74;25.75
27040;BME280;14589;51.578;7.306;2023-09-08T11:29:59;101185.84;;;37.70;24.72
27040;BME280;14589;51.578;7.306;2023-09-08T11:32:33;101176.91;;;37.99;24.01
27040;BME280;14589;51.578;7.306;2023-09-08T11:35:05;101179.91;;;38.16;24.20
27040;BME280;14589;51.578;7.306;2023-09-08T11:37:40;101186.19;;;38.35;23.09
27040;BME280;14589;51.578;7.306;2023-09-08T11:40:11;101183.81;;;38.29;22.93
27040;BME280;14589;51.578;7.306;2023-09-08T11:42:43;101167.84;;;38.33;22.96
27040;BME280;14589;51.578;7.306;2023-09-08T11:45:15;101172.50;;;38.51;22.91
27040;BME280;14589;51.578;7.306;2023-09-08T11:47:52;101173.41;;;38.69;23.12
27040;BME280;14589;51.578;7.306;2023-09-08T11:50:23;101164.72;;;39.05;23.45
27040;BME280;14589;51.578;7.306;2023-09-08T11:52:54;101166.28;;;39.28;22.66
27040;BME280;14589;51.578;7.306;2023-09-08T11:55:25;101161.59;;;39.23;23.05
27040;BME280;14589;51.578;7.306;2023-09-08T11:57:56;101156.16;;;39.61;21.90
27040;BME280;14589;51.578;7.306;2023-09-08T12:00:31;101156.09;;;39.27;21.59
27040;BME280;14589;51.578;7.306;2023-09-08T12:03:13;101150.97;;;39.46;21.49
27040;BME280;14589;51.578;7.306;2023-09-08T12:05:50;101154.53;;;39.86;21.44
27040;BME280;14589;51.578;7.306;2023-09-08T12:08:24;101151.81;;;39.64;22.39
27040;BME280;14589;51.578;7.306;2023-09-08T12:10:55;101142.63;;;40.10;21.51
27040;BME280;14589;51.578;7.306;2023-09-08T12:13:25;101149.97;;;40.28;21.15
27040;BME280;14589;51.578;7.306;2023-09-08T12:15:56;101145.94;;;40.29;20.82
27040;BME280;14589;51.578;7.306;2023-09-08T12:18:46;101142.47;;;40.24;22.03
27040;BME280;14589;51.578;7.306;2023-09-08T12:21:18;101154.66;;;40.07;20.21
27040;BME280;14589;51.578;7.306;2023-09-08T12:23:52;101138.22;;;40.21;20.93
27040;BME280;14589;51.578;7.306;2023-09-08T12:26:26;101150.59;;;40.42;20.98
27040;BME280;14589;51.578;7.306;2023-09-08T12:28:57;101140.19;;;40.47;21.04
27040;BME280;14589;51.578;7.306;2023-09-08T12:31:27;101136.66;;;40.50;20.45
27040;BME280;14589;51.578;7.306;2023-09-08T12:33:57;101135.22;;;40.81;20.81
27040;BME280;14589;51.578;7.306;2023-09-08T12:36:28;101125.13;;;40.55;19.87
27040;BME280;14589;51.578;7.306;2023-09-08T12:38:58;101131.06;;;40.79;20.22
27040;BME280;14589;51.578;7.306;2023-09-08T12:41:28;101131.78;;;40.67;19.39
27040;BME280;14589;51.578;7.306;2023-09-08T12:43:59;101126.97;;;40.89;19.18
27040;BME280;14589;51.578;7.306;2023-09-08T12:46:29;101117.06;;;40.57;19.64
27040;BME280;14589;51.578;7.306;2023-09-08T12:49:02;101133.28;;;40.73;19.41
27040;BME280;14589;51.578;7.306;2023-09-08T12:51:32;101124.03;;;41.06;20.59
27040;BME280;14589;51.578;7.306;2023-09-08T12:54:02;101121.34;;;41.59;18.65
27040;BME280;14589;51.578;7.306;2023-09-08T12:56:33;101123.47;;;41.42;18.08
27040;BME280;14589;51.578;7.306;2023-09-08T12:59:04;101121.91;;;41.53;18.20
27040;BME280;14589;51.578;7.306;2023-09-08T13:01:34;101116.22;;;41.53;17.75
27040;BME280;14589;51.578;7.306;2023-09-08T13:04:05;101115.22;;;41.70;17.48
27040;BME280;14589;51.578;7.306;2023-09-08T13:06:35;101109.84;;;42.22;17.81
27040;BME280;14589;51.578;7.306;2023-09-08T13:09:06;101114.94;;;42.73;17.71